sensor_id;sensor_type;location;lat;lon;timestamp;temperature;humidity
27376;DHT22;14844;51.302;6.354;2023-11-21T00:01:35;8.40;99.90
27376;DHT22;14844;51.302;6.354;2023-11-21T00:04:01;8.40;99.90
27376;DHT22;14844;51.302;6.354;2023-11-21T00:06:27;8.40;99.90
27376;DHT22;14844;51.302;6.354;2023-11-21T00:08:52;8.40;99.90
27376;DHT22;14844;51.302;6.354;2023-11-21T00:11:18;8.40;99.90
27376;DHT22;14844;51.302;6.354;2023-11-21T00:13:44;8.40;99.90
27376;DHT22;14844;51.302;6.354;2023-11-21T00:16:09;8.40;99.90
27376;DHT22;14844;51.302;6.354;2023-11-21T00:18:35;8.50;99.90
27376;DHT22;14844;51.302;6.354;2023-11-21T00:21:01;8.50;99.90
27376;DHT22;14844;51.302;6.354;2023-11-21T00:23:26;8.50;99.90
27376;DHT22;14844;51.302;6.354;2023-11-21T00:25:52;8.50;99.90
27376;DHT22;14844;51.302;6.354;2023-11-21T00:28:17;8.40;99.90
27376;DHT22;14844;51.302;6.354;2023-11-21T00:30:43;8.40;99.90
27376;DHT22;14844;51.302;6.354;2023-11-21T00:33:08;8.50;99.90
27376;DHT22;14844;51.302;6.354;2023-11-21T00:35:34;8.40;99.90
27376;DHT22;14844;51.302;6.354;2023-11-21T00:38:00;8.40;99.90
27376;DHT22;14844;51.302;6.354;2023-11-21T00:40:25;8.50;99.90
27376;DHT22;14844;51.302;6.354;2023-11-21T00:42:51;8.50;99.90
27376;DHT22;14844;51.302;6.354;2023-11-21T00:45:17;8.50;99.90
27376;DHT22;14844;51.302;6.354;2023-11-21T00:47:42;8.50;99.90
27376;DHT22;14844;51.302;6.354;2023-11-21T00:50:08;8.50;99.90
27376;DHT22;14844;51.302;6.354;2023-11-21T00:52:35;8.50;99.90
27376;DHT22;14844;51.302;6.354;2023-11-21T00:55:01;8.50;99.90
27376;DHT22;14844;51.302;6.354;2023-11-21T00:57:28;8.60;99.90
27376;DHT22;14844;51.302;6.354;2023-11-21T00:59:54;8.50;99.90
27376;DHT22;14844;51.302;6.354;2023-11-21T01:02:20;8.50;99.90
27376;DHT22;14844;51.302;6.354;2023-11-21T01:04:45;8.60;99.90
27376;DHT22;14844;51.302;6.354;2023-11-21T01:07:13;8.60;99.90
27376;DHT22;14844;51.302;6.354;2023-11-21T01:09:38;8.60;99.90
27376;DHT22;14844;51.302;6.354;2023-11-21T01:12:04;8.60;99.90
27376;DHT22;14844;51.302;6.354;2023-11-21T01:14:30;8.50;99.90
27376;DHT22;14844;51.302;6.354;2023-11-21T01:16:55;8.50;99.90
27376;DHT22;14844;51.302;6.354;2023-11-21T01:19:21;8.50;99.90
27376;DHT22;14844;51.302;6.354;2023-11-21T01:21:46;8.50;99.90
27376;DHT22;14844;51.302;6.354;2023-11-21T01:24:12;8.50;99.90
27376;DHT22;14844;51.302;6.354;2023-11-21T01:26:38;8.50;99.90
27376;DHT22;14844;51.302;6.354;2023-11-21T01:29:03;8.60;99.90
27376;DHT22;14844;51.302;6.354;2023-11-21T01:31:29;8.60;99.90
27376;DHT22;14844;51.302;6.354;2023-11-21T01:33:55;8.70;99.90
27376;DHT22;14844;51.302;6.354;2023-11-21T01:36:21;8.60;99.90
27376;DHT22;14844;51.302;6.354;2023-11-21T01:38:47;8.60;99.90
27376;DHT22;14844;51.302;6.354;2023-11-21T01:41:16;8.60;99.90
27376;DHT22;14844;51.302;6.354;2023-11-21T01:43:41;8.50;99.90
27376;DHT22;14844;51.302;6.354;2023-11-21T01:46:08;8.50;99.90
27376;DHT22;14844;51.302;6.354;2023-11-21T01:48:34;8.50;99.90
27376;DHT22;14844;51.302;6.354;2023-11-21T01:51:00;8.50;99.90
27376;DHT22;14844;51.302;6.354;2023-11-21T01:53:26;8.50;99.90
27376;DHT22;14844;51.302;6.354;2023-11-21T01:55:53;8.40;99.90
27376;DHT22;14844;51.302;6.354;2023-11-21T01:58:19;8.50;99.90
27376;DHT22;14844;51.302;6.354;2023-11-21T02:00:45;8.50;99.90
27376;DHT22;14844;51.302;6.354;2023-11-21T02:03:10;8.50;99.90
27376;DHT22;14844;51.302;6.354;2023-11-21T02:05:37;8.50;99.90
27376;DHT22;14844;51.302;6.354;2023-11-21T02:08:03;8.40;99.90
27376;DHT22;14844;51.302;6.354;2023-11-21T02:10:30;8.50;99.90
27376;DHT22;14844;51.302;6.354;2023-11-21T02:12:56;8.50;99.90
27376;DHT22;14844;51.302;6.354;2023-11-21T02:15:23;8.50;99.90
27376;DHT22;14844;51.302;6.354;2023-11-21T02:17:52;8.50;99.90
27376;DHT22;14844;51.302;6.354;2023-11-21T02:20:20;8.50;99.90
27376;DHT22;14844;51.302;6.354;2023-11-21T02:22:53;8.50;99.90
27376;DHT22;14844;51.302;6.354;2023-11-21T02:25:32;8.50;99.90
27376;DHT22;14844;51.302;6.354;2023-11-21T02:28:00;8.50;99.90
27376;DHT22;14844;51.302;6.354;2023-11-21T02:30:26;8.50;99.90
27376;DHT22;14844;51.302;6.354;2023-11-21T02:32:53;8.50;99.90
27376;DHT22;14844;51.302;6.354;2023-11-21T02:35:19;8.50;99.90
27376;DHT22;14844;51.302;6.354;2023-11-21T02:38:06;8.50;99.90
27376;DHT22;14844;51.302;6.354;2023-11-21T02:40:32;8.40;99.90
27376;DHT22;14844;51.302;6.354;2023-11-21T02:42:57;8.50;99.90
27376;DHT22;14844;51.302;6.354;2023-11-21T02:45:24;8.50;99.90
27376;DHT22;14844;51.302;6.354;2023-11-21T02:47:49;8.50;99.90
27376;DHT22;14844;51.302;6.354;2023-11-21T02:50:17;8.50;99.90
27376;DHT22;14844;51.302;6.354;2023-11-21T02:52:44;8.50;99.90
27376;DHT22;14844;51.302;6.354;2023-11-21T02:55:09;8.50;99.90
27376;DHT22;14844;51.302;6.354;2023-11-21T02:57:35;8.50;99.90
27376;DHT22;14844;51.302;6.354;2023-11-21T03:00:01;8.50;99.90
27376;DHT22;14844;51.302;6.354;2023-11-21T03:02:26;8.50;99.90
27376;DHT22;14844;51.302;6.354;2023-11-21T03:04:52;8.50;99.90
27376;DHT22;14844;51.302;6.354;2023-11-21T03:07:17;8.50;99.90
27376;DHT22;14844;51.302;6.354;2023-11-21T03:09:47;8.50;99.90
27376;DHT22;14844;51.302;6.354;2023-11-21T03:12:12;8.40;99.90
27376;DHT22;14844;51.302;6.354;2023-11-21T03:14:39;8.40;99.90
27376;DHT22;14844;51.302;6.354;2023-11-21T03:17:05;8.40;99.90
27376;DHT22;14844;51.302;6.354;2023-11-21T03:19:31;8.40;99.90
27376;DHT22;14844;51.302;6.354;2023-11-21T03:21:56;8.40;99.90
27376;DHT22;14844;51.302;6.354;2023-11-21T03:24:22;8.40;99.90
27376;DHT22;14844;51.302;6.354;2023-11-21T03:26:48;8.40;99.90
27376;DHT22;14844;51.302;6.354;2023-11-21T03:29:14;8.40;99.90
27376;DHT22;14844;51.302;6.354;2023-11-21T03:31:40;8.40;99.90
27376;DHT22;14844;51.302;6.354;2023-11-21T03:34:06;8.40;99.90
27376;DHT22;14844;51.302;6.354;2023-11-21T03:36:31;8.40;99.90
27376;DHT22;14844;51.302;6.354;2023-11-21T03:38:57;8.40;99.90
27376;DHT22;14844;51.302;6.354;2023-11-21T03:41:22;8.40;99.90
27376;DHT22;14844;51.302;6.354;2023-11-21T03:43:48;8.40;99.90
27376;DHT22;14844;51.302;6.354;2023-11-21T03:46:14;8.40;99.90
27376;DHT22;14844;51.302;6.354;2023-11-21T03:48:40;8.50;99.90
27376;DHT22;14844;51.302;6.354;2023-11-21T03:51:05;8.50;99.90
27376;DHT22;14844;51.302;6.354;2023-11-21T03:53:31;8.50;99.90
27376;DHT22;14844;51.302;6.354;2023-11-21T03:55:57;8.50;99.90
27376;DHT22;14844;51.302;6.354;2023-11-21T03:58:23;8.50;99.90
27376;DHT22;14844;51.302;6.354;2023-11-21T04:00:48;8.50;99.90
27376;DHT22;14844;51.302;6.354;2023-11-21T04:03:14;8.50;99.90
27376;DHT22;14844;51.302;6.354;2023-11-21T04:05:41;8.40;99.90
27376;DHT22;14844;51.302;6.354;2023-11-21T04:08:06;8.40;99.90
27376;DHT22;14844;51.302;6.354;2023-11-21T04:10:32;8.40;99.90
27376;DHT22;14844;51.302;6.354;2023-11-21T04:12:58;8.40;99.90
27376;DHT22;14844;51.302;6.354;2023-11-21T04:15:23;8.40;99.90
27376;DHT22;14844;51.302;6.354;2023-11-21T04:17:49;8.40;99.90
27376;DHT22;14844;51.302;6.354;2023-11-21T04:20:15;8.40;99.90
27376;DHT22;14844;51.302;6.354;2023-11-21T04:22:41;8.40;99.90
27376;DHT22;14844;51.302;6.354;2023-11-21T04:25:09;8.40;99.90
27376;DHT22;14844;51.302;6.354;2023-11-21T04:27:43;8.40;99.90
27376;DHT22;14844;51.302;6.354;2023-11-21T04:30:11;8.40;99.90
27376;DHT22;14844;51.302;6.354;2023-11-21T04:32:37;8.40;99.90
27376;DHT22;14844;51.302;6.354;2023-11-21T04:35:07;8.40;99.90
27376;DHT22;14844;51.302;6.354;2023-11-21T04:37:36;8.40;99.90
27376;DHT22;14844;51.302;6.354;2023-11-21T04:40:02;8.40;99.90
27376;DHT22;14844;51.302;6.354;2023-11-21T04:42:33;8.40;99.90
27376;DHT22;14844;51.302;6.354;2023-11-21T04:44:58;8.40;99.90
27376;DHT22;14844;51.302;6.354;2023-11-21T04:47:24;8.50;99.90
27376;DHT22;14844;51.302;6.354;2023-11-21T04:49:49;8.50;99.90
27376;DHT22;14844;51.302;6.354;2023-11-21T04:52:15;8.50;99.90
27376;DHT22;14844;51.302;6.354;2023-11-21T04:54:40;8.50;99.90
27376;DHT22;14844;51.302;6.354;2023-11-21T04:57:06;8.50;99.90
27376;DHT22;14844;51.302;6.354;2023-11-21T04:59:34;8.50;99.90
27376;DHT22;14844;51.302;6.354;2023-11-21T05:02:00;8.50;99.90
27376;DHT22;14844;51.302;6.354;2023-11-21T05:04:30;8.50;99.90
27376;DHT22;14844;51.302;6.354;2023-11-21T05:07:21;8.40;99.90
27376;DHT22;14844;51.302;6.354;2023-11-21T05:09:57;8.40;99.90
27376;DHT22;14844;51.302;6.354;2023-11-21T05:12:24;8.40;99.90
27376;DHT22;14844;51.302;6.354;2023-11-21T05:14:50;8.40;99.90
27376;DHT22;14844;51.302;6.354;2023-11-21T05:17:28;8.30;99.90
27376;DHT22;14844;51.302;6.354;2023-11-21T05:19:53;8.30;99.90
27376;DHT22;14844;51.302;6.354;2023-11-21T05:22:19;8.30;99.90
27376;DHT22;14844;51.302;6.354;2023-11-21T05:24:45;8.30;99.90
27376;DHT22;14844;51.302;6.354;2023-11-21T05:27:11;8.40;99.90
27376;DHT22;14844;51.302;6.354;2023-11-21T05:29:37;8.40;99.90
27376;DHT22;14844;51.302;6.354;2023-11-21T05:32:03;8.30;99.90
27376;DHT22;14844;51.302;6.354;2023-11-21T05:34:28;8.30;99.90
27376;DHT22;14844;51.302;6.354;2023-11-21T05:36:54;8.30;99.90
27376;DHT22;14844;51.302;6.354;2023-11-21T05:39:19;8.30;99.90
27376;DHT22;14844;51.302;6.354;2023-11-21T05:41:46;8.30;99.90
27376;DHT22;14844;51.302;6.354;2023-11-21T05:44:12;8.30;99.90
27376;DHT22;14844;51.302;6.354;2023-11-21T05:46:39;8.20;99.90
27376;DHT22;14844;51.302;6.354;2023-11-21T05:49:06;8.30;99.90
27376;DHT22;14844;51.302;6.354;2023-11-21T05:51:33;8.30;99.90
27376;DHT22;14844;51.302;6.354;2023-11-21T05:53:58;8.20;99.90
27376;DHT22;14844;51.302;6.354;2023-11-21T05:56:24;8.20;99.90
27376;DHT22;14844;51.302;6.354;2023-11-21T05:58:49;8.30;99.90
27376;DHT22;14844;51.302;6.354;2023-11-21T06:01:16;8.20;99.90
27376;DHT22;14844;51.302;6.354;2023-11-21T06:03:41;8.30;99.90
27376;DHT22;14844;51.302;6.354;2023-11-21T06:06:08;8.30;99.90
27376;DHT22;14844;51.302;6.354;2023-11-21T06:08:34;8.30;99.90
27376;DHT22;14844;51.302;6.354;2023-11-21T06:10:59;8.30;99.90
27376;DHT22;14844;51.302;6.354;2023-11-21T06:13:25;8.40;99.90
27376;DHT22;14844;51.302;6.354;2023-11-21T06:15:51;8.40;99.90
27376;DHT22;14844;51.302;6.354;2023-11-21T06:18:17;8.40;99.90
27376;DHT22;14844;51.302;6.354;2023-11-21T06:20:45;8.40;99.90
27376;DHT22;14844;51.302;6.354;2023-11-21T06:23:11;8.40;99.90
27376;DHT22;14844;51.302;6.354;2023-11-21T06:25:36;8.40;99.90
27376;DHT22;14844;51.302;6.354;2023-11-21T06:28:02;8.40;99.90
27376;DHT22;14844;51.302;6.354;2023-11-21T06:30:27;8.40;99.90
27376;DHT22;14844;51.302;6.354;2023-11-21T06:32:54;8.40;99.90
27376;DHT22;14844;51.302;6.354;2023-11-21T06:35:21;8.40;99.90
27376;DHT22;14844;51.302;6.354;2023-11-21T06:37:47;8.40;99.90
27376;DHT22;14844;51.302;6.354;2023-11-21T06:40:13;8.40;99.90
27376;DHT22;14844;51.302;6.354;2023-11-21T06:42:43;8.40;99.90
27376;DHT22;14844;51.302;6.354;2023-11-21T06:45:10;8.40;99.90
27376;DHT22;14844;51.302;6.354;2023-11-21T06:47:36;8.40;99.90
27376;DHT22;14844;51.302;6.354;2023-11-21T06:50:03;8.40;99.90
27376;DHT22;14844;51.302;6.354;2023-11-21T06:52:29;8.40;99.90
27376;DHT22;14844;51.302;6.354;2023-11-21T06:54:55;8.40;99.90
27376;DHT22;14844;51.302;6.354;2023-11-21T06:57:22;8.40;99.90
27376;DHT22;14844;51.302;6.354;2023-11-21T06:59:48;8.40;99.90
27376;DHT22;14844;51.302;6.354;2023-11-21T07:02:13;8.40;99.90
27376;DHT22;14844;51.302;6.354;2023-11-21T07:04:39;8.30;99.90
27376;DHT22;14844;51.302;6.354;2023-11-21T07:07:06;8.30;99.90
27376;DHT22;14844;51.302;6.354;2023-11-21T07:09:32;8.30;99.90
27376;DHT22;14844;51.302;6.354;2023-11-21T07:11:58;8.30;99.90
27376;DHT22;14844;51.302;6.354;2023-11-21T07:14:23;8.30;99.90
27376;DHT22;14844;51.302;6.354;2023-11-21T07:16:49;8.40;99.90
27376;DHT22;14844;51.302;6.354;2023-11-21T07:19:18;8.40;99.90
27376;DHT22;14844;51.302;6.354;2023-11-21T07:21:43;8.30;99.90
27376;DHT22;14844;51.302;6.354;2023-11-21T07:24:09;8.30;99.90
27376;DHT22;14844;51.302;6.354;2023-11-21T07:26:35;8.30;99.90
27376;DHT22;14844;51.302;6.354;2023-11-21T07:29:01;8.30;99.90
27376;DHT22;14844;51.302;6.354;2023-11-21T07:31:28;8.40;99.90
27376;DHT22;14844;51.302;6.354;2023-11-21T07:33:54;8.40;99.90
27376;DHT22;14844;51.302;6.354;2023-11-21T07:36:22;8.40;99.90
27376;DHT22;14844;51.302;6.354;2023-11-21T07:38:48;8.40;99.90
27376;DHT22;14844;51.302;6.354;2023-11-21T07:41:14;8.40;99.90
27376;DHT22;14844;51.302;6.354;2023-11-21T07:43:43;8.30;99.90
27376;DHT22;14844;51.302;6.354;2023-11-21T07:46:08;8.30;99.90
27376;DHT22;14844;51.302;6.354;2023-11-21T07:48:34;8.40;99.90
27376;DHT22;14844;51.302;6.354;2023-11-21T07:51:01;8.40;99.90
27376;DHT22;14844;51.302;6.354;2023-11-21T07:53:28;8.40;99.90
27376;DHT22;14844;51.302;6.354;2023-11-21T07:56:08;8.40;99.90
27376;DHT22;14844;51.302;6.354;2023-11-21T07:58:34;8.50;99.90
27376;DHT22;14844;51.302;6.354;2023-11-21T08:01:00;8.50;99.90
27376;DHT22;14844;51.302;6.354;2023-11-21T08:03:27;8.50;99.90
27376;DHT22;14844;51.302;6.354;2023-11-21T08:05:53;8.60;99.90
27376;DHT22;14844;51.302;6.354;2023-11-21T08:08:19;8.60;99.90
27376;DHT22;14844;51.302;6.354;2023-11-21T08:10:45;8.70;99.90
27376;DHT22;14844;51.302;6.354;2023-11-21T08:13:14;8.80;99.90
27376;DHT22;14844;51.302;6.354;2023-11-21T08:15:42;8.90;99.90
27376;DHT22;14844;51.302;6.354;2023-11-21T08:18:11;8.90;99.90
27376;DHT22;14844;51.302;6.354;2023-11-21T08:20:37;9.00;99.90
27376;DHT22;14844;51.302;6.354;2023-11-21T08:23:05;9.00;99.90
27376;DHT22;14844;51.302;6.354;2023-11-21T08:25:31;9.00;99.90
27376;DHT22;14844;51.302;6.354;2023-11-21T08:27:57;8.90;99.90
27376;DHT22;14844;51.302;6.354;2023-11-21T08:30:23;8.90;99.90
27376;DHT22;14844;51.302;6.354;2023-11-21T08:32:49;8.90;99.90
27376;DHT22;14844;51.302;6.354;2023-11-21T08:35:19;8.90;99.90
27376;DHT22;14844;51.302;6.354;2023-11-21T08:37:45;8.80;99.90
27376;DHT22;14844;51.302;6.354;2023-11-21T08:40:11;8.80;99.90
27376;DHT22;14844;51.302;6.354;2023-11-21T08:42:41;8.80;99.90
27376;DHT22;14844;51.302;6.354;2023-11-21T08:45:08;8.80;99.90
27376;DHT22;14844;51.302;6.354;2023-11-21T08:47:34;8.90;99.90
27376;DHT22;14844;51.302;6.354;2023-11-21T08:50:02;8.90;99.90
27376;DHT22;14844;51.302;6.354;2023-11-21T08:52:28;8.90;99.90
27376;DHT22;14844;51.302;6.354;2023-11-21T08:54:53;8.90;99.90
27376;DHT22;14844;51.302;6.354;2023-11-21T08:57:24;9.00;99.90
27376;DHT22;14844;51.302;6.354;2023-11-21T08:59:50;9.00;99.90
27376;DHT22;14844;51.302;6.354;2023-11-21T09:02:21;9.10;99.90
27376;DHT22;14844;51.302;6.354;2023-11-21T09:04:48;9.10;99.90
27376;DHT22;14844;51.302;6.354;2023-11-21T09:07:14;9.10;99.90
27376;DHT22;14844;51.302;6.354;2023-11-21T09:09:39;9.10;99.90
27376;DHT22;14844;51.302;6.354;2023-11-21T09:12:05;9.20;99.90
27376;DHT22;14844;51.302;6.354;2023-11-21T09:14:31;9.20;99.90
27376;DHT22;14844;51.302;6.354;2023-11-21T09:16:56;9.20;99.90
27376;DHT22;14844;51.302;6.354;2023-11-21T09:19:22;9.30;99.90
27376;DHT22;14844;51.302;6.354;2023-11-21T09:21:48;9.40;99.90
27376;DHT22;14844;51.302;6.354;2023-11-21T09:24:14;9.40;99.90
27376;DHT22;14844;51.302;6.354;2023-11-21T09:26:40;9.40;99.90
27376;DHT22;14844;51.302;6.354;2023-11-21T09:29:05;9.40;99.90
27376;DHT22;14844;51.302;6.354;2023-11-21T09:31:31;9.40;99.90
27376;DHT22;14844;51.302;6.354;2023-11-21T09:33:58;9.50;99.90
27376;DHT22;14844;51.302;6.354;2023-11-21T09:36:24;9.50;99.90
27376;DHT22;14844;51.302;6.354;2023-11-21T09:38:52;9.50;99.90
27376;DHT22;14844;51.302;6.354;2023-11-21T09:41:30;9.50;99.90
27376;DHT22;14844;51.302;6.354;2023-11-21T09:44:02;9.60;99.90
27376;DHT22;14844;51.302;6.354;2023-11-21T09:46:28;9.60;99.90
27376;DHT22;14844;51.302;6.354;2023-11-21T09:48:57;9.70;99.90
27376;DHT22;14844;51.302;6.354;2023-11-21T09:51:27;9.80;99.90
27376;DHT22;14844;51.302;6.354;2023-11-21T09:53:57;9.90;99.90
27376;DHT22;14844;51.302;6.354;2023-11-21T09:56:24;9.90;99.90
27376;DHT22;14844;51.302;6.354;2023-11-21T09:58:52;9.90;99.90
27376;DHT22;14844;51.302;6.354;2023-11-21T10:01:19;9.90;99.90
27376;DHT22;14844;51.302;6.354;2023-11-21T10:03:46;10.10;99.90
27376;DHT22;14844;51.302;6.354;2023-11-21T10:06:13;10.00;99.90
27376;DHT22;14844;51.302;6.354;2023-11-21T10:08:40;10.10;99.90
27376;DHT22;14844;51.302;6.354;2023-11-21T10:11:07;10.20;99.90
27376;DHT22;14844;51.302;6.354;2023-11-21T10:13:34;10.30;99.90
27376;DHT22;14844;51.302;6.354;2023-11-21T10:16:00;10.40;99.90
27376;DHT22;14844;51.302;6.354;2023-11-21T10:18:32;10.40;99.90
27376;DHT22;14844;51.302;6.354;2023-11-21T10:21:00;10.60;99.90
27376;DHT22;14844;51.302;6.354;2023-11-21T10:23:26;10.60;99.90
27376;DHT22;14844;51.302;6.354;2023-11-21T10:25:52;10.70;99.90
27376;DHT22;14844;51.302;6.354;2023-11-21T10:28:18;10.80;99.90
27376;DHT22;14844;51.302;6.354;2023-11-21T10:30:44;10.90;99.90
27376;DHT22;14844;51.302;6.354;2023-11-21T10:33:10;11.00;99.90
27376;DHT22;14844;51.302;6.354;2023-11-21T10:35:45;11.10;99.90
27376;DHT22;14844;51.302;6.354;2023-11-21T10:38:19;11.20;99.90
27376;DHT22;14844;51.302;6.354;2023-11-21T10:40:48;11.20;99.90
27376;DHT22;14844;51.302;6.354;2023-11-21T10:43:14;11.20;99.90
27376;DHT22;14844;51.302;6.354;2023-11-21T10:45:41;11.20;99.90
27376;DHT22;14844;51.302;6.354;2023-11-21T10:48:08;11.10;99.90
27376;DHT22;14844;51.302;6.354;2023-11-21T10:50:35;11.10;99.90
27376;DHT22;14844;51.302;6.354;2023-11-21T10:53:05;11.10;99.90
27376;DHT22;14844;51.302;6.354;2023-11-21T10:55:32;11.10;99.90
27376;DHT22;14844;51.302;6.354;2023-11-21T10:58:00;11.10;99.90
27376;DHT22;14844;51.302;6.354;2023-11-21T11:00:27;11.20;99.90
27376;DHT22;14844;51.302;6.354;2023-11-21T11:02:54;11.30;99.90
27376;DHT22;14844;51.302;6.354;2023-11-21T11:05:21;11.30;99.90
27376;DHT22;14844;51.302;6.354;2023-11-21T11:07:51;11.40;99.90
27376;DHT22;14844;51.302;6.354;2023-11-21T11:10:20;11.40;99.90
27376;DHT22;14844;51.302;6.354;2023-11-21T11:12:48;11.40;99.90
27376;DHT22;14844;51.302;6.354;2023-11-21T11:15:15;11.40;99.90
27376;DHT22;14844;51.302;6.354;2023-11-21T11:17:41;11.30;99.90
27376;DHT22;14844;51.302;6.354;2023-11-21T11:20:10;11.40;99.90
27376;DHT22;14844;51.302;6.354;2023-11-21T11:22:47;11.50;99.90
27376;DHT22;14844;51.302;6.354;2023-11-21T11:25:50;11.60;99.90
27376;DHT22;14844;51.302;6.354;2023-11-21T11:28:21;11.80;99.90
27376;DHT22;14844;51.302;6.354;2023-11-21T11:31:17;11.90;99.90
27376;DHT22;14844;51.302;6.354;2023-11-21T11:33:48;12.20;99.90
27376;DHT22;14844;51.302;6.354;2023-11-21T11:36:28;12.20;99.90
27376;DHT22;14844;51.302;6.354;2023-11-21T11:38:54;12.40;99.90
27376;DHT22;14844;51.302;6.354;2023-11-21T11:41:30;12.40;99.90
27376;DHT22;14844;51.302;6.354;2023-11-21T11:44:00;12.60;99.90
27376;DHT22;14844;51.302;6.354;2023-11-21T11:46:43;12.80;99.90
27376;DHT22;14844;51.302;6.354;2023-11-21T11:49:27;13.00;99.90
27376;DHT22;14844;51.302;6.354;2023-11-21T11:55:02;12.90;99.90
27376;DHT22;14844;51.302;6.354;2023-11-21T11:57:31;12.90;99.90
27376;DHT22;14844;51.302;6.354;2023-11-21T12:02:36;13.00;99.90
27376;DHT22;14844;51.302;6.354;2023-11-21T12:05:08;13.10;99.90
27376;DHT22;14844;51.302;6.354;2023-11-21T12:07:59;13.00;99.90
27376;DHT22;14844;51.302;6.354;2023-11-21T12:10:32;12.80;99.90
27376;DHT22;14844;51.302;6.354;2023-11-21T12:13:00;12.70;99.90
27376;DHT22;14844;51.302;6.354;2023-11-21T12:15:27;12.70;99.90
27376;DHT22;14844;51.302;6.354;2023-11-21T12:17:55;12.80;99.90
27376;DHT22;14844;51.302;6.354;2023-11-21T12:20:23;12.80;99.90
27376;DHT22;14844;51.302;6.354;2023-11-21T12:22:49;12.80;99.90
27376;DHT22;14844;51.302;6.354;2023-11-21T12:25:40;12.70;99.90
27376;DHT22;14844;51.302;6.354;2023-11-21T12:28:07;12.60;99.90
27376;DHT22;14844;51.302;6.354;2023-11-21T12:30:36;12.50;99.90
27376;DHT22;14844;51.302;6.354;2023-11-21T12:33:04;12.40;99.90
27376;DHT22;14844;51.302;6.354;2023-11-21T12:35:33;12.30;99.90
27376;DHT22;14844;51.302;6.354;2023-11-21T12:38:00;12.20;99.90
27376;DHT22;14844;51.302;6.354;2023-11-21T12:40:28;12.10;99.90
27376;DHT22;14844;51.302;6.354;2023-11-21T12:42:56;12.00;99.90
27376;DHT22;14844;51.302;6.354;2023-11-21T12:45:23;11.90;99.90
27376;DHT22;14844;51.302;6.354;2023-11-21T12:47:55;11.90;99.90
27376;DHT22;14844;51.302;6.354;2023-11-21T12:50:25;11.90;99.90
27376;DHT22;14844;51.302;6.354;2023-11-21T12:52:58;11.90;99.90
27376;DHT22;14844;51.302;6.354;2023-11-21T12:55:24;11.60;99.90
27376;DHT22;14844;51.302;6.354;2023-11-21T12:57:51;11.50;99.90
27376;DHT22;14844;51.302;6.354;2023-11-21T13:00:19;11.50;99.90
27376;DHT22;14844;51.302;6.354;2023-11-21T13:02:58;11.40;99.90
27376;DHT22;14844;51.302;6.354;2023-11-21T13:05:31;11.40;99.90
27376;DHT22;14844;51.302;6.354;2023-11-21T13:07:59;11.50;99.90
27376;DHT22;14844;51.302;6.354;2023-11-21T13:10:28;11.60;99.90
27376;DHT22;14844;51.302;6.354;2023-11-21T13:12:57;11.70;99.90
27376;DHT22;14844;51.302;6.354;2023-11-21T13:15:27;11.90;99.90
27376;DHT22;14844;51.302;6.354;2023-11-21T13:17:53;12.00;99.90
27376;DHT22;14844;51.302;6.354;2023-11-21T13:20:19;12.00;99.90
27376;DHT22;14844;51.302;6.354;2023-11-21T13:22:54;11.80;99.90
27376;DHT22;14844;51.302;6.354;2023-11-21T13:25:26;11.70;99.90
27376;DHT22;14844;51.302;6.354;2023-11-21T13:27:56;11.70;99.90
27376;DHT22;14844;51.302;6.354;2023-11-21T13:30:23;11.70;99.90
27376;DHT22;14844;51.302;6.354;2023-11-21T13:33:05;11.70;99.90
27376;DHT22;14844;51.302;6.354;2023-11-21T13:35:36;11.70;99.90
27376;DHT22;14844;51.302;6.354;2023-11-21T13:38:13;11.70;99.90
27376;DHT22;14844;51.302;6.354;2023-11-21T13:40:41;11.70;99.90
27376;DHT22;14844;51.302;6.354;2023-11-21T13:43:12;11.60;99.90
27376;DHT22;14844;51.302;6.354;2023-11-21T13:46:15;11.60;99.90
27376;DHT22;14844;51.302;6.354;2023-11-21T13:48:51;11.70;99.90
27376;DHT22;14844;51.302;6.354;2023-11-21T13:51:23;11.70;99.90
27376;DHT22;14844;51.302;6.354;2023-11-21T13:54:00;11.70;99.90
27376;DHT22;14844;51.302;6.354;2023-11-21T13:56:26;11.50;99.90
27376;DHT22;14844;51.302;6.354;2023-11-21T13:58:54;11.40;99.90
27376;DHT22;14844;51.302;6.354;2023-11-21T14:01:22;11.30;99.90
27376;DHT22;14844;51.302;6.354;2023-11-21T14:03:57;11.20;99.90
27376;DHT22;14844;51.302;6.354;2023-11-21T14:06:33;11.30;99.90
27376;DHT22;14844;51.302;6.354;2023-11-21T14:09:05;11.30;99.90
27376;DHT22;14844;51.302;6.354;2023-11-21T14:11:32;11.30;99.90
27376;DHT22;14844;51.302;6.354;2023-11-21T14:13:59;11.20;99.90
27376;DHT22;14844;51.302;6.354;2023-11-21T14:16:25;11.20;99.90
27376;DHT22;14844;51.302;6.354;2023-11-21T14:18:51;11.30;99.90
27376;DHT22;14844;51.302;6.354;2023-11-21T14:21:27;11.30;99.90
27376;DHT22;14844;51.302;6.354;2023-11-21T14:23:52;11.30;99.90
27376;DHT22;14844;51.302;6.354;2023-11-21T14:26:19;11.30;99.90
27376;DHT22;14844;51.302;6.354;2023-11-21T14:28:46;11.10;99.90
27376;DHT22;14844;51.302;6.354;2023-11-21T14:31:14;10.90;99.90
27376;DHT22;14844;51.302;6.354;2023-11-21T14:33:43;10.90;99.90
27376;DHT22;14844;51.302;6.354;2023-11-21T14:36:09;10.80;99.90
27376;DHT22;14844;51.302;6.354;2023-11-21T14:38:36;10.90;99.90
27376;DHT22;14844;51.302;6.354;2023-11-21T14:41:03;10.90;99.90
27376;DHT22;14844;51.302;6.354;2023-11-21T14:43:29;10.90;99.90
27376;DHT22;14844;51.302;6.354;2023-11-21T14:45:55;10.80;99.90
27376;DHT22;14844;51.302;6.354;2023-11-21T14:48:23;10.70;99.90
27376;DHT22;14844;51.302;6.354;2023-11-21T14:51:07;10.70;99.90
27376;DHT22;14844;51.302;6.354;2023-11-21T14:53:56;10.70;99.90
27376;DHT22;14844;51.302;6.354;2023-11-21T14:56:27;10.60;99.90
27376;DHT22;14844;51.302;6.354;2023-11-21T14:58:57;10.50;99.90
27376;DHT22;14844;51.302;6.354;2023-11-21T15:01:23;10.50;99.90
27376;DHT22;14844;51.302;6.354;2023-11-21T15:04:08;10.40;99.90
27376;DHT22;14844;51.302;6.354;2023-11-21T15:06:40;10.30;99.90
27376;DHT22;14844;51.302;6.354;2023-11-21T15:09:08;10.30;99.90
27376;DHT22;14844;51.302;6.354;2023-11-21T15:11:34;10.20;99.90
27376;DHT22;14844;51.302;6.354;2023-11-21T15:14:00;10.20;99.90
27376;DHT22;14844;51.302;6.354;2023-11-21T15:16:27;10.20;99.90
27376;DHT22;14844;51.302;6.354;2023-11-21T15:18:53;10.10;99.90
27376;DHT22;14844;51.302;6.354;2023-11-21T15:21:20;10.20;99.90
27376;DHT22;14844;51.302;6.354;2023-11-21T15:23:47;10.20;99.90
27376;DHT22;14844;51.302;6.354;2023-11-21T15:26:13;10.10;99.90
27376;DHT22;14844;51.302;6.354;2023-11-21T15:28:38;10.10;99.90
27376;DHT22;14844;51.302;6.354;2023-11-21T15:31:04;10.10;99.90
27376;DHT22;14844;51.302;6.354;2023-11-21T15:33:30;10.00;99.90
27376;DHT22;14844;51.302;6.354;2023-11-21T15:35:56;10.00;99.90
27376;DHT22;14844;51.302;6.354;2023-11-21T15:38:32;10.00;99.90
27376;DHT22;14844;51.302;6.354;2023-11-21T15:40:57;10.00;99.90
27376;DHT22;14844;51.302;6.354;2023-11-21T15:43:24;10.00;99.90
27376;DHT22;14844;51.302;6.354;2023-11-21T15:45:49;10.00;99.90
27376;DHT22;14844;51.302;6.354;2023-11-21T15:48:15;10.00;99.90
27376;DHT22;14844;51.302;6.354;2023-11-21T15:50:42;10.00;99.90